Time;durP1;ratioP1;P1;durP2;ratioP2;P2;SDS_P1;SDS_P2;PMS_P1;PMS_P2;Temp;Humidity;BMP_temperature;BMP_pressure;BME280_temperature;BME280_humidity;BME280_pressure;Samples;Min_cycle;Max_cycle;Signal;HPM_P1;HPM_P2
2022/04/07 00:01:09;;;;;;;8.18;1.52;;;10.00;99.90;;;;;;4966259;28;20456;-76
2022/04/07 00:03:35;;;;;;;5.65;1.42;;;10.00;99.90;;;;;;4968754;28;20038;-75
2022/04/07 00:06:01;;;;;;;7.00;1.80;;;9.90;99.90;;;;;;4967505;28;20065;-76
2022/04/07 00:08:28;;;;;;;6.10;1.48;;;9.90;99.90;;;;;;4970694;28;20038;-75
2022/04/07 00:10:53;;;;;;;6.45;1.70;;;9.90;99.90;;;;;;4968958;28;20125;-75
2022/04/07 00:13:19;;;;;;;7.28;1.80;;;9.80;99.90;;;;;;4967284;28;20472;-75
2022/04/07 00:15:45;;;;;;;6.43;2.17;;;9.70;99.90;;;;;;4969465;28;20035;-75
2022/04/07 00:18:10;;;;;;;9.45;2.50;;;9.70;99.90;;;;;;4966534;28;20038;-75
2022/04/07 00:20:36;;;;;;;8.60;2.72;;;9.70;99.90;;;;;;4984299;28;20039;-76
2022/04/07 00:23:03;;;;;;;8.73;2.33;;;9.60;99.90;;;;;;4968971;28;20413;-75
2022/04/07 00:25:29;;;;;;;11.55;2.90;;;9.60;99.90;;;;;;4969554;28;20455;-75
2022/04/07 00:27:55;;;;;;;8.00;2.65;;;9.60;99.90;;;;;;4968442;28;20045;-75
2022/04/07 00:30:21;;;;;;;6.45;2.47;;;9.60;99.90;;;;;;4966323;28;20048;-75
2022/04/07 00:32:50;;;;;;;7.10;2.10;;;9.60;99.90;;;;;;4966494;28;20050;-76
2022/04/07 00:35:16;;;;;;;7.43;2.13;;;9.60;99.90;;;;;;4968585;28;20046;-76
2022/04/07 00:37:43;;;;;;;5.38;2.45;;;9.50;99.90;;;;;;4963847;28;20053;-75
2022/04/07 00:40:11;;;;;;;9.68;1.40;;;9.60;99.90;;;;;;4968192;28;20082;-77
2022/04/07 00:42:47;;;;;;;7.57;0.93;;;9.60;99.90;;;;;;4964241;28;20058;-77
2022/04/07 00:45:16;;;;;;;3.47;0.80;;;9.50;99.90;;;;;;4966307;28;20662;-77
2022/04/07 00:47:42;;;;;;;1.00;0.20;;;9.50;99.90;;;;;;4984271;28;20054;-76
2022/04/07 00:50:10;;;;;;;2.78;0.35;;;9.50;99.90;;;;;;4966308;28;20130;-77
2022/04/07 00:52:41;;;;;;;2.58;0.38;;;9.40;99.90;;;;;;4965438;28;20061;-76
2022/04/07 00:55:09;;;;;;;2.10;0.30;;;9.50;99.90;;;;;;4966483;28;20397;-76
2022/04/07 00:57:37;;;;;;;2.95;0.40;;;9.50;99.90;;;;;;4969001;28;20045;-77
2022/04/07 01:00:04;;;;;;;2.53;0.70;;;9.50;99.90;;;;;;4969052;28;20496;-77
2022/04/07 01:02:30;;;;;;;7.57;1.65;;;9.40;99.90;;;;;;4967662;28;20027;-76
2022/04/07 01:04:56;;;;;;;5.57;1.70;;;9.50;99.90;;;;;;4969279;28;20042;-76
2022/04/07 01:07:24;;;;;;;5.75;1.75;;;9.50;99.90;;;;;;4966953;28;20039;-77
2022/04/07 01:09:49;;;;;;;5.07;1.90;;;9.50;99.90;;;;;;4967685;28;20059;-76
2022/04/07 01:12:15;;;;;;;4.60;2.03;;;9.50;99.90;;;;;;4963645;28;20493;-76
2022/04/07 01:15:01;;;;;;;4.63;1.23;;;9.40;99.90;;;;;;4966993;28;20038;-76
2022/04/07 01:17:27;;;;;;;5.55;1.25;;;9.40;99.90;;;;;;4966854;28;20416;-76
2022/04/07 01:19:53;;;;;;;5.57;1.85;;;9.40;99.90;;;;;;4966896;28;20038;-77
2022/04/07 01:22:21;;;;;;;8.13;2.38;;;9.40;99.90;;;;;;4964628;28;20046;-76
2022/04/07 01:24:47;;;;;;;6.53;2.47;;;9.40;99.90;;;;;;4966026;28;20126;-77
2022/04/07 01:27:13;;;;;;;9.43;2.90;;;9.40;99.90;;;;;;4966135;28;20042;-77
2022/04/07 01:29:39;;;;;;;8.00;2.83;;;9.40;99.90;;;;;;4967122;28;20038;-76
2022/04/07 01:32:16;;;;;;;6.85;3.13;;;9.50;99.90;;;;;;4978991;28;20121;-76
2022/04/07 01:34:42;;;;;;;7.03;3.63;;;9.40;99.90;;;;;;4983517;28;20069;-76
2022/04/07 01:37:08;;;;;;;8.73;3.58;;;9.50;99.90;;;;;;4966220;28;20049;-76
2022/04/07 01:39:36;;;;;;;9.70;3.50;;;9.40;99.90;;;;;;4966000;28;20461;-76
2022/04/07 01:42:03;;;;;;;13.75;3.72;;;9.40;99.90;;;;;;4963582;28;20342;-76
2022/04/07 01:44:30;;;;;;;7.25;3.28;;;9.40;99.90;;;;;;4964436;28;20153;-76
2022/04/07 01:46:57;;;;;;;11.75;3.33;;;9.50;99.90;;;;;;4964949;28;20039;-76
2022/04/07 01:49:23;;;;;;;8.80;3.00;;;9.40;99.90;;;;;;4962947;28;20086;-78
2022/04/07 01:51:50;;;;;;;9.02;2.75;;;9.50;99.90;;;;;;4968043;28;20050;-76
2022/04/07 01:54:16;;;;;;;6.32;2.65;;;9.50;99.90;;;;;;4965310;28;20043;-77
2022/04/07 01:56:43;;;;;;;8.82;3.17;;;9.50;99.90;;;;;;4967607;28;20066;-76
2022/04/07 01:59:09;;;;;;;12.23;3.13;;;9.50;99.90;;;;;;4966292;28;20069;-75
2022/04/07 02:01:35;;;;;;;10.52;2.30;;;9.50;99.90;;;;;;4968726;28;20439;-76
2022/04/07 02:04:01;;;;;;;9.90;2.03;;;9.50;99.90;;;;;;4967538;28;20043;-76
2022/04/07 02:06:27;;;;;;;12.35;2.58;;;9.50;99.90;;;;;;4965732;28;20437;-77
2022/04/07 02:08:54;;;;;;;11.85;2.45;;;9.60;99.90;;;;;;4981370;28;20054;-77
2022/04/07 02:11:22;;;;;;;8.23;2.58;;;9.60;99.90;;;;;;4980402;28;20056;-77
2022/04/07 02:13:48;;;;;;;8.63;2.17;;;9.60;99.90;;;;;;4963579;28;20082;-76
2022/04/07 02:16:14;;;;;;;7.47;2.00;;;9.50;99.90;;;;;;4965725;28;20031;-76
2022/04/07 02:18:40;;;;;;;11.32;2.20;;;9.50;99.90;;;;;;4964789;28;20035;-76
2022/04/07 02:21:06;;;;;;;7.00;1.85;;;9.50;99.90;;;;;;4966923;28;20106;-77
2022/04/07 02:23:34;;;;;;;11.43;2.65;;;9.50;99.90;;;;;;4967727;28;20126;-76
2022/04/07 02:26:00;;;;;;;8.90;2.25;;;9.50;99.90;;;;;;4966999;28;20042;-77
2022/04/07 02:28:26;;;;;;;8.80;2.17;;;9.40;99.90;;;;;;4962770;28;20047;-76
2022/04/07 02:30:51;;;;;;;7.07;1.88;;;9.50;99.90;;;;;;4966233;28;20488;-76
2022/04/07 02:33:17;;;;;;;9.25;2.13;;;9.50;99.90;;;;;;4961751;28;20500;-77
2022/04/07 02:35:42;;;;;;;9.15;1.75;;;9.50;99.90;;;;;;4964636;28;20038;-76
2022/04/07 02:38:08;;;;;;;12.25;2.47;;;9.40;99.90;;;;;;4966101;28;20102;-76
2022/04/07 02:40:33;;;;;;;16.48;3.05;;;9.50;99.90;;;;;;4965788;28;20073;-76
2022/04/07 02:42:59;;;;;;;12.65;2.97;;;9.50;99.90;;;;;;4961888;28;20063;-77
2022/04/07 02:45:25;;;;;;;12.82;3.40;;;9.60;99.90;;;;;;4963928;28;20039;-76
2022/04/07 02:47:50;;;;;;;8.90;2.10;;;9.60;99.90;;;;;;4979892;28;20046;-76
2022/04/07 02:50:16;;;;;;;11.07;2.25;;;9.50;99.90;;;;;;4964975;28;20121;-76
2022/04/07 02:52:43;;;;;;;12.52;2.30;;;9.50;99.90;;;;;;4964173;28;20046;-76
2022/04/07 02:55:09;;;;;;;12.10;2.50;;;9.50;99.90;;;;;;4965108;28;20483;-77
2022/04/07 02:57:35;;;;;;;14.27;2.63;;;9.50;99.90;;;;;;4966123;28;20043;-76
2022/04/07 03:00:03;;;;;;;11.18;2.30;;;9.60;99.90;;;;;;4965675;28;20381;-76
2022/04/07 03:02:29;;;;;;;12.32;2.10;;;9.50;99.90;;;;;;4966174;28;20050;-76
2022/04/07 03:04:55;;;;;;;13.68;2.58;;;9.50;99.90;;;;;;4963801;28;20503;-77
2022/04/07 03:07:20;;;;;;;13.15;3.67;;;9.40;99.90;;;;;;4965842;28;20070;-77
2022/04/07 03:09:46;;;;;;;13.43;3.58;;;9.40;99.90;;;;;;4964517;28;20046;-77
2022/04/07 03:12:13;;;;;;;16.55;2.30;;;9.50;99.90;;;;;;4966803;28;20987;-76
2022/04/07 03:14:39;;;;;;;13.98;2.65;;;9.50;99.90;;;;;;4965779;28;20043;-76
2022/04/07 03:17:05;;;;;;;11.95;2.63;;;9.50;99.90;;;;;;4964483;28;20043;-76
2022/04/07 03:19:31;;;;;;;12.75;2.03;;;9.40;99.90;;;;;;4980589;28;20041;-76
2022/04/07 03:21:57;;;;;;;9.48;2.47;;;9.50;99.90;;;;;;4967899;28;20042;-77
2022/04/07 03:24:24;;;;;;;10.25;2.33;;;9.40;99.90;;;;;;4980121;28;20063;-77
2022/04/07 03:26:50;;;;;;;7.75;1.58;;;9.40;99.90;;;;;;4963182;28;20045;-76
2022/04/07 03:29:19;;;;;;;12.95;2.25;;;9.40;99.90;;;;;;4962096;28;20039;-77
2022/04/07 03:31:44;;;;;;;10.95;2.25;;;9.40;99.90;;;;;;4964459;28;20452;-76
2022/04/07 03:34:10;;;;;;;7.88;2.30;;;9.40;99.90;;;;;;4966684;28;20031;-76
2022/04/07 03:36:35;;;;;;;7.10;1.23;;;9.40;99.90;;;;;;4968595;28;20591;-76
2022/04/07 03:39:01;;;;;;;11.38;2.70;;;9.30;99.90;;;;;;4969555;28;20778;-76
2022/04/07 03:41:28;;;;;;;9.75;1.73;;;9.30;99.90;;;;;;4969108;28;20475;-78
2022/04/07 03:43:55;;;;;;;9.23;1.25;;;9.30;99.90;;;;;;4951162;28;20047;-76
2022/04/07 03:46:21;;;;;;;13.48;1.83;;;9.30;99.90;;;;;;4968783;28;20043;-76
2022/04/07 03:48:50;;;;;;;7.80;1.35;;;9.20;99.90;;;;;;4964615;28;20129;-77
2022/04/07 03:51:17;;;;;;;9.98;1.85;;;9.30;99.90;;;;;;4967696;28;20488;-75
2022/04/07 03:53:42;;;;;;;9.13;1.50;;;9.30;99.90;;;;;;4967408;28;20042;-76
2022/04/07 03:56:08;;;;;;;7.90;1.77;;;9.40;99.90;;;;;;4970204;28;20057;-77
2022/04/07 03:58:34;;;;;;;11.23;1.83;;;9.40;99.90;;;;;;4967532;28;20057;-77
2022/04/07 04:01:00;;;;;;;7.22;1.75;;;9.30;99.90;;;;;;4967148;28;20185;-77
2022/04/07 04:03:26;;;;;;;8.45;1.95;;;9.40;99.90;;;;;;4967695;28;20047;-77
2022/04/07 04:05:52;;;;;;;10.27;2.30;;;9.50;99.90;;;;;;4967684;28;20042;-76
2022/04/07 04:08:33;;;;;;;8.75;1.67;;;9.40;99.90;;;;;;4967481;28;20715;-77
2022/04/07 04:10:58;;;;;;;14.65;2.65;;;9.40;99.90;;;;;;4965348;28;20039;-76
2022/04/07 04:13:26;;;;;;;17.10;2.85;;;9.40;99.90;;;;;;4967303;28;20039;-77
2022/04/07 04:15:51;;;;;;;11.82;2.83;;;9.40;99.90;;;;;;4969171;28;20106;-76
2022/04/07 04:18:17;;;;;;;18.80;4.20;;;9.40;99.90;;;;;;4967126;28;20161;-76
2022/04/07 04:20:43;;;;;;;13.05;3.15;;;9.40;99.90;;;;;;4968583;28;20055;-77
2022/04/07 04:23:08;;;;;;;17.15;3.92;;;9.40;99.90;;;;;;4965888;28;20137;-77
2022/04/07 04:25:34;;;;;;;18.50;3.88;;;9.40;99.90;;;;;;4968613;28;20591;-76
2022/04/07 04:28:00;;;;;;;19.75;2.90;;;9.40;99.90;;;;;;4984553;28;20027;-78
2022/04/07 04:30:26;;;;;;;21.75;3.63;;;9.30;99.90;;;;;;4966523;28;20031;-77
2022/04/07 04:32:52;;;;;;;15.93;3.40;;;9.40;99.90;;;;;;4969232;28;20092;-77
2022/04/07 04:35:18;;;;;;;23.38;5.28;;;9.40;99.90;;;;;;4968032;28;20101;-76
2022/04/07 04:37:43;;;;;;;16.63;3.17;;;9.40;99.90;;;;;;4966989;28;20054;-77
2022/04/07 04:40:09;;;;;;;20.02;3.80;;;9.30;99.90;;;;;;4966945;28;20126;-77
2022/04/07 04:42:35;;;;;;;15.98;3.40;;;9.30;99.90;;;;;;4968160;28;20077;-77
2022/04/07 04:45:01;;;;;;;14.38;3.00;;;9.30;99.90;;;;;;4968839;28;20445;-76
2022/04/07 04:47:26;;;;;;;18.73;3.05;;;9.30;99.90;;;;;;4981849;28;20081;-76
2022/04/07 04:49:52;;;;;;;21.77;3.33;;;9.30;99.90;;;;;;4967328;28;20042;-77
2022/04/07 04:52:19;;;;;;;16.73;3.13;;;9.40;99.90;;;;;;4965345;28;20043;-76
2022/04/07 04:54:44;;;;;;;15.43;2.83;;;9.40;99.90;;;;;;4968797;28;20550;-76
2022/04/07 04:57:10;;;;;;;16.15;2.78;;;9.40;99.90;;;;;;4967595;28;20050;-76
2022/04/07 04:59:35;;;;;;;14.77;3.55;;;9.40;99.90;;;;;;4969432;28;20133;-77
2022/04/07 05:02:01;;;;;;;23.15;4.22;;;9.40;99.90;;;;;;4968858;28;20054;-76
2022/04/07 05:04:27;;;;;;;15.43;2.22;;;9.40;99.90;;;;;;4952538;28;20035;-75
2022/04/07 05:06:53;;;;;;;14.38;2.83;;;9.30;99.90;;;;;;4968627;28;20519;-75
2022/04/07 05:09:18;;;;;;;11.40;1.27;;;9.30;99.90;;;;;;4986019;28;20440;-74
2022/04/07 05:11:44;;;;;;;5.68;0.70;;;9.20;99.90;;;;;;4964421;28;20047;-75
2022/04/07 05:14:09;;;;;;;9.35;1.33;;;9.00;99.90;;;;;;4966033;28;20081;-74
2022/04/07 05:16:35;;;;;;;8.65;1.33;;;8.90;99.90;;;;;;4983763;28;20034;-75
2022/04/07 05:19:01;;;;;;;8.85;1.40;;;8.80;99.90;;;;;;4966791;28;20034;-75
2022/04/07 05:21:26;;;;;;;12.45;2.72;;;8.80;99.90;;;;;;4965262;28;20126;-74
2022/04/07 05:23:52;;;;;;;23.02;2.88;;;8.70;99.90;;;;;;4964371;28;20050;-75
2022/04/07 05:26:18;;;;;;;17.52;3.15;;;8.70;99.90;;;;;;4967081;28;20042;-75
2022/04/07 05:28:44;;;;;;;18.35;4.03;;;8.80;99.90;;;;;;4965946;28;20808;-76
2022/04/07 05:31:10;;;;;;;15.25;3.20;;;9.00;99.90;;;;;;4965833;28;20042;-75
2022/04/07 05:33:36;;;;;;;16.58;3.42;;;8.90;99.90;;;;;;4966188;28;20039;-75
2022/04/07 05:36:02;;;;;;;14.32;3.47;;;8.90;99.90;;;;;;4981854;28;20042;-75
2022/04/07 05:38:28;;;;;;;11.68;2.63;;;8.90;99.90;;;;;;4963340;28;20069;-75
2022/04/07 05:40:53;;;;;;;14.68;3.03;;;8.90;99.90;;;;;;4964678;28;20062;-74
2022/04/07 05:43:19;;;;;;;11.70;3.83;;;9.00;99.90;;;;;;4966230;28;20130;-74
2022/04/07 05:45:45;;;;;;;14.48;2.70;;;9.00;99.90;;;;;;4966102;28;20074;-73
2022/04/07 05:48:14;;;;;;;3.70;0.65;;;9.00;99.90;;;;;;4969601;28;20053;-73
2022/04/07 05:50:40;;;;;;;3.53;0.32;;;8.60;99.90;;;;;;4967414;28;20030;-73
2022/04/07 05:53:06;;;;;;;1.73;0.20;;;8.20;99.90;;;;;;4965485;28;20631;-73
2022/04/07 05:55:35;;;;;;;2.75;0.20;;;7.80;99.90;;;;;;4966265;28;20575;-73
2022/04/07 05:58:06;;;;;;;4.60;0.20;;;7.40;99.90;;;;;;4966582;28;20428;-73
2022/04/07 06:00:32;;;;;;;2.55;0.30;;;7.10;99.90;;;;;;4966415;28;20042;-73
2022/04/07 06:02:57;;;;;;;3.05;0.20;;;6.90;99.90;;;;;;4980340;28;20047;-73
2022/04/07 06:05:23;;;;;;;3.00;0.30;;;6.70;99.90;;;;;;4965102;28;20054;-72
2022/04/07 06:07:49;;;;;;;2.88;0.30;;;6.70;99.90;;;;;;4963472;28;20046;-72
2022/04/07 06:10:15;;;;;;;2.85;0.50;;;6.60;99.90;;;;;;4958716;28;20562;-72
2022/04/07 06:12:43;;;;;;;7.38;1.40;;;6.50;99.90;;;;;;4964353;28;20465;-72
2022/04/07 06:15:12;;;;;;;7.65;1.10;;;6.40;99.90;;;;;;4966876;28;20048;-72
2022/04/07 06:17:41;;;;;;;8.93;2.05;;;6.40;99.90;;;;;;4966663;28;20084;-72
2022/04/07 06:20:10;;;;;;;4.32;0.70;;;6.40;99.90;;;;;;4964968;28;20038;-72
2022/04/07 06:22:36;;;;;;;6.40;0.63;;;6.40;99.90;;;;;;4963930;28;20145;-72
2022/04/07 06:25:02;;;;;;;5.85;1.10;;;6.30;99.90;;;;;;4964639;28;20042;-72
2022/04/07 06:27:36;;;;;;;3.47;0.57;;;6.30;99.90;;;;;;4963948;28;20035;-72
2022/04/07 06:30:04;;;;;;;5.65;0.88;;;6.30;99.90;;;;;;4966454;28;20086;-72
2022/04/07 06:32:29;;;;;;;2.30;0.40;;;6.20;99.90;;;;;;4981513;28;20524;-72
2022/04/07 06:34:55;;;;;;;3.97;0.50;;;6.20;99.90;;;;;;4965765;28;20047;-72
2022/04/07 06:37:21;;;;;;;5.90;0.50;;;6.20;99.90;;;;;;4980279;28;20042;-72
2022/04/07 06:39:46;;;;;;;1.92;0.50;;;6.20;99.90;;;;;;4966465;28;20525;-72
2022/04/07 06:42:12;;;;;;;4.40;0.80;;;6.20;99.90;;;;;;4965064;28;20046;-73
2022/04/07 06:44:38;;;;;;;4.03;0.50;;;6.20;99.90;;;;;;4963716;28;20045;-72
2022/04/07 06:47:04;;;;;;;3.63;0.35;;;6.20;99.90;;;;;;4968526;28;20062;-72
2022/04/07 06:49:29;;;;;;;0.85;0.20;;;6.30;99.90;;;;;;4963548;28;20034;-72
2022/04/07 06:51:55;;;;;;;2.67;0.57;;;6.30;99.90;;;;;;4966502;28;20070;-72
2022/04/07 06:54:21;;;;;;;2.33;0.30;;;6.30;99.90;;;;;;4966395;28;20045;-72
2022/04/07 06:56:46;;;;;;;2.47;0.28;;;6.30;99.90;;;;;;4966486;28;20075;-72
2022/04/07 06:59:12;;;;;;;2.92;0.30;;;6.40;99.90;;;;;;4968690;28;20121;-72
2022/04/07 07:01:38;;;;;;;1.83;0.45;;;6.40;99.90;;;;;;4964658;28;20046;-72
2022/04/07 07:04:04;;;;;;;1.67;0.30;;;6.40;99.90;;;;;;4963247;28;20034;-72
2022/04/07 07:06:30;;;;;;;2.40;0.30;;;6.40;99.90;;;;;;4963027;28;20085;-72
2022/04/07 07:08:55;;;;;;;2.38;0.20;;;6.40;99.90;;;;;;4966565;28;20556;-72
2022/04/07 07:11:21;;;;;;;2.70;0.30;;;6.40;99.90;;;;;;4966733;28;20056;-72
2022/04/07 07:13:47;;;;;;;1.30;0.30;;;6.30;99.90;;;;;;4970020;28;20039;-71
2022/04/07 07:16:12;;;;;;;1.95;0.20;;;6.30;99.90;;;;;;4969410;28;20047;-73
2022/04/07 07:18:38;;;;;;;3.83;0.40;;;6.40;99.90;;;;;;4969873;28;20045;-72
2022/04/07 07:21:05;;;;;;;1.88;0.22;;;6.40;99.90;;;;;;4968790;28;20493;-72
2022/04/07 07:23:32;;;;;;;1.63;0.28;;;6.40;99.90;;;;;;4969072;28;20035;-72
2022/04/07 07:25:58;;;;;;;3.22;0.40;;;6.40;99.90;;;;;;4971092;28;20499;-72
2022/04/07 07:28:24;;;;;;;4.57;1.20;;;6.40;99.90;;;;;;4984659;28;20074;-72
2022/04/07 07:30:49;;;;;;;4.90;0.47;;;6.50;99.90;;;;;;4967003;28;20125;-73
2022/04/07 07:33:15;;;;;;;2.20;0.40;;;6.40;99.90;;;;;;4969322;28;20130;-72
2022/04/07 07:35:43;;;;;;;3.58;0.20;;;6.50;99.90;;;;;;4969543;28;20046;-73
2022/04/07 07:38:08;;;;;;;3.50;0.60;;;6.50;99.90;;;;;;4949890;28;20047;-72
2022/04/07 07:40:35;;;;;;;4.00;0.50;;;6.50;99.90;;;;;;4968911;28;20389;-73
2022/04/07 07:43:02;;;;;;;3.40;0.38;;;6.60;99.90;;;;;;4970011;28;20047;-72
2022/04/07 07:45:29;;;;;;;3.55;0.30;;;6.50;99.90;;;;;;4983682;28;20551;-73
2022/04/07 07:47:55;;;;;;;2.30;0.43;;;6.50;99.90;;;;;;4968924;28;20093;-73
2022/04/07 07:50:21;;;;;;;3.65;0.40;;;6.60;99.90;;;;;;4967491;28;20043;-73
2022/04/07 07:52:47;;;;;;;3.22;0.47;;;6.60;99.90;;;;;;4965359;28;20101;-73
2022/04/07 07:55:13;;;;;;;4.38;0.30;;;6.60;99.90;;;;;;4968080;28;20484;-72
2022/04/07 07:57:39;;;;;;;4.65;1.27;;;6.60;99.90;;;;;;4966637;28;20050;-73
2022/04/07 08:00:07;;;;;;;3.03;0.40;;;6.60;99.90;;;;;;4968538;28;20045;-73
2022/04/07 08:02:34;;;;;;;2.05;0.50;;;6.60;99.90;;;;;;4964967;28;20506;-73
2022/04/07 08:05:01;;;;;;;7.20;0.40;;;6.60;99.90;;;;;;4969949;28;20034;-73
2022/04/07 08:07:27;;;;;;;3.50;0.55;;;6.60;99.90;;;;;;4965180;28;20042;-73
2022/04/07 08:09:57;;;;;;;2.67;0.30;;;6.70;99.90;;;;;;4966687;28;20082;-73
2022/04/07 08:12:24;;;;;;;1.85;0.30;;;6.80;99.90;;;;;;4965525;28;20050;-73
2022/04/07 08:14:49;;;;;;;4.25;0.40;;;6.90;99.90;;;;;;4951364;28;20141;-73
2022/04/07 08:17:15;;;;;;;1.33;0.30;;;6.90;99.90;;;;;;4966853;28;20572;-74
2022/04/07 08:19:41;;;;;;;3.75;0.50;;;7.00;99.90;;;;;;4968739;28;20137;-74
2022/04/07 08:22:07;;;;;;;2.92;0.40;;;7.00;99.90;;;;;;4963931;28;20074;-73
2022/04/07 08:24:34;;;;;;;3.40;0.47;;;7.10;99.90;;;;;;4969723;28;20046;-73
2022/04/07 08:27:00;;;;;;;3.55;0.40;;;7.20;99.90;;;;;;4967127;28;20089;-73
2022/04/07 08:29:26;;;;;;;4.75;0.40;;;7.10;99.90;;;;;;4984561;28;20436;-73
2022/04/07 08:31:52;;;;;;;5.03;1.08;;;7.30;99.90;;;;;;4968185;28;20094;-74
2022/04/07 08:34:19;;;;;;;3.30;0.63;;;7.30;99.90;;;;;;4964866;28;20051;-74
2022/04/07 08:36:45;;;;;;;3.45;0.43;;;7.40;99.90;;;;;;4965116;28;20043;-74
2022/04/07 08:39:10;;;;;;;3.08;0.60;;;7.70;99.90;;;;;;4968088;28;20039;-73
2022/04/07 08:41:39;;;;;;;3.25;0.52;;;8.10;99.90;;;;;;4969176;28;20066;-74
2022/04/07 08:44:06;;;;;;;5.10;0.63;;;8.50;99.90;;;;;;4966411;28;20051;-74
2022/04/07 08:46:32;;;;;;;1.42;0.30;;;8.70;99.90;;;;;;4969076;28;20070;-74
2022/04/07 08:49:04;;;;;;;2.90;0.40;;;9.00;99.90;;;;;;4964544;28;20031;-74
2022/04/07 08:51:31;;;;;;;3.67;0.22;;;9.30;99.90;;;;;;4966236;28;20050;-74
2022/04/07 08:53:57;;;;;;;2.17;0.28;;;9.50;99.90;;;;;;4966703;28;20112;-73
2022/04/07 08:56:23;;;;;;;3.92;0.30;;;9.60;99.90;;;;;;4967761;28;21528;-74
2022/04/07 08:58:50;;;;;;;5.75;0.88;;;9.80;99.90;;;;;;4964196;28;20488;-75
2022/04/07 09:01:15;;;;;;;3.70;0.65;;;10.00;99.90;;;;;;4966476;28;20066;-74
2022/04/07 09:03:43;;;;;;;4.20;1.75;;;10.10;99.90;;;;;;4965326;28;21734;-75
2022/04/07 09:06:10;;;;;;;2.58;0.32;;;10.30;99.90;;;;;;4965517;28;20711;-75
2022/04/07 09:08:39;;;;;;;4.72;0.50;;;10.40;99.90;;;;;;4966555;28;20469;-73
2022/04/07 09:11:06;;;;;;;6.03;0.98;;;10.40;99.90;;;;;;4969012;28;20043;-73
2022/04/07 09:13:39;;;;;;;6.80;0.88;;;10.40;99.90;;;;;;4967628;28;20134;-74
2022/04/07 09:16:07;;;;;;;7.40;0.80;;;11.10;99.90;;;;;;4964902;28;20050;-73
2022/04/07 09:18:37;;;;;;;6.88;0.77;;;10.60;99.90;;;;;;4967042;28;20047;-74
2022/04/07 09:21:04;;;;;;;9.13;0.68;;;10.80;99.90;;;;;;4966569;28;20425;-75
2022/04/07 09:23:39;;;;;;;7.47;0.80;;;10.90;99.90;;;;;;4962443;28;20497;-75
2022/04/07 09:26:10;;;;;;;5.60;0.50;;;11.20;99.90;;;;;;4967136;28;20412;-75
2022/04/07 09:28:35;;;;;;;7.78;0.70;;;11.40;99.90;;;;;;4966627;28;20047;-74
2022/04/07 09:31:01;;;;;;;5.82;0.75;;;11.40;99.90;;;;;;4966669;28;20484;-74
2022/04/07 09:33:28;;;;;;;3.38;0.70;;;11.50;99.90;;;;;;4966570;28;20105;-74
2022/04/07 09:36:05;;;;;;;5.03;0.63;;;11.50;99.90;;;;;;4965468;28;20058;-75
2022/04/07 09:38:32;;;;;;;8.70;1.23;;;11.30;99.90;;;;;;4963851;28;20035;-73
2022/04/07 09:41:11;;;;;;;10.45;1.27;;;11.20;99.90;;;;;;4967178;28;20038;-73
2022/04/07 09:43:46;;;;;;;11.57;1.40;;;11.00;99.90;;;;;;4965552;28;20058;-74
2022/04/07 09:46:20;;;;;;;6.80;1.13;;;10.90;99.90;;;;;;4966830;28;20089;-75
2022/04/07 09:49:09;;;;;;;6.30;0.77;;;10.80;99.90;;;;;;4965872;28;21894;-73
2022/04/07 09:51:50;;;;;;;9.38;1.30;;;10.90;99.90;;;;;;4967628;28;20393;-73
2022/04/07 09:54:17;;;;;;;8.30;1.10;;;10.90;99.90;;;;;;4962926;28;20481;-74
2022/04/07 09:56:45;;;;;;;6.32;0.90;;;11.00;99.90;;;;;;4981687;28;20058;-74
2022/04/07 09:59:14;;;;;;;5.63;0.80;;;10.90;99.90;;;;;;4965249;28;20041;-74
2022/04/07 10:01:39;;;;;;;10.93;0.82;;;10.80;99.90;;;;;;4965252;28;20046;-74
2022/04/07 10:04:06;;;;;;;4.47;0.80;;;10.70;99.90;;;;;;4965592;28;20074;-74
2022/04/07 10:06:35;;;;;;;10.07;1.50;;;10.50;99.90;;;;;;4966892;28;20055;-74
2022/04/07 10:09:04;;;;;;;10.35;2.47;;;10.50;99.90;;;;;;4981447;28;20035;-74
2022/04/07 10:11:31;;;;;;;11.82;1.63;;;10.40;99.90;;;;;;4967408;28;20515;-74
2022/04/07 10:13:58;;;;;;;4.97;0.70;;;10.60;99.90;;;;;;4966395;28;20448;-75
2022/04/07 10:16:25;;;;;;;11.35;2.70;;;10.50;99.90;;;;;;4964532;28;20054;-75
2022/04/07 10:19:01;;;;;;;11.27;1.48;;;10.50;99.90;;;;;;4964939;28;20117;-74
2022/04/07 10:22:01;;;;;;;11.10;1.17;;;10.70;99.90;;;;;;4962472;28;20449;-73
2022/04/07 10:24:29;;;;;;;10.27;1.67;;;10.60;99.90;;;;;;4964618;28;20429;-73
2022/04/07 10:26:57;;;;;;;12.70;2.38;;;10.50;99.90;;;;;;4964263;28;20042;-73
2022/04/07 10:29:24;;;;;;;16.35;3.38;;;10.60;99.90;;;;;;4962425;28;20492;-74
2022/04/07 10:32:11;;;;;;;13.40;1.90;;;10.70;99.90;;;;;;4965917;28;20519;-74
2022/04/07 10:34:52;;;;;;;7.85;1.30;;;10.90;99.90;;;;;;4965468;28;20039;-74
2022/04/07 10:37:41;;;;;;;8.20;1.92;;;11.10;99.90;;;;;;4964184;28;20089;-73
2022/04/07 10:40:33;;;;;;;10.45;2.47;;;11.20;99.90;;;;;;4981877;28;20117;-73
2022/04/07 10:43:05;;;;;;;11.80;2.03;;;11.20;99.90;;;;;;4964596;28;20043;-73
2022/04/07 10:45:35;;;;;;;9.60;2.00;;;11.30;99.90;;;;;;4964373;28;20050;-73
2022/04/07 10:48:20;;;;;;;12.55;1.85;;;11.40;99.90;;;;;;4966293;28;20401;-71
2022/04/07 10:50:58;;;;;;;8.60;1.13;;;11.40;99.90;;;;;;4980221;28;20054;-71
2022/04/07 10:53:28;;;;;;;7.28;1.63;;;11.20;99.90;;;;;;4963924;28;20607;-72
2022/04/07 10:55:57;;;;;;;13.30;2.70;;;11.20;99.90;;;;;;4965851;28;20685;-72
2022/04/07 10:58:42;;;;;;;10.85;1.83;;;11.10;99.90;;;;;;4981041;28;20050;-71
2022/04/07 11:01:31;;;;;;;13.32;2.17;;;10.90;99.90;;;;;;4961414;28;20046;-71
2022/04/07 11:04:19;;;;;;;8.98;1.63;;;10.80;99.90;;;;;;4956409;28;20059;-72
2022/04/07 11:07:17;;;;;;;10.00;1.40;;;10.60;99.90;;;;;;4965374;28;20428;-71
2022/04/07 11:09:48;;;;;;;11.23;2.00;;;10.50;99.90;;;;;;4962857;28;20046;-71
2022/04/07 11:12:32;;;;;;;12.38;1.80;;;10.40;99.90;;;;;;4966285;28;20085;-71
2022/04/07 11:15:28;;;;;;;7.78;1.17;;;10.50;99.90;;;;;;4966663;28;20078;-71
2022/04/07 11:18:19;;;;;;;9.73;1.27;;;10.20;99.90;;;;;;4967131;28;20077;-71
2022/04/07 11:21:11;;;;;;;12.68;1.85;;;10.00;99.90;;;;;;4980120;28;20038;-71
2022/04/07 11:23:42;;;;;;;8.77;2.08;;;10.00;99.90;;;;;;4964766;28;20070;-71
2022/04/07 11:26:20;;;;;;;12.45;2.10;;;10.30;99.90;;;;;;4964247;28;20039;-71
2022/04/07 11:29:02;;;;;;;11.23;2.78;;;10.70;99.90;;;;;;4963870;28;20034;-71
2022/04/07 11:31:45;;;;;;;9.57;1.65;;;11.00;99.90;;;;;;4966302;28;20058;-71
2022/04/07 11:34:36;;;;;;;15.00;2.47;;;11.10;99.90;;;;;;4965042;28;20045;-72
2022/04/07 11:37:14;;;;;;;14.80;2.00;;;11.20;99.90;;;;;;4980584;28;20089;-71
2022/04/07 11:39:45;;;;;;;9.68;2.22;;;11.30;99.90;;;;;;4967781;28;20038;-71
2022/04/07 11:42:12;;;;;;;12.63;1.95;;;11.30;99.90;;;;;;4967330;28;20074;-72
2022/04/07 11:44:38;;;;;;;15.98;2.85;;;11.30;99.90;;;;;;4968874;28;20129;-72
2022/04/07 11:47:19;;;;;;;13.40;1.98;;;11.30;99.90;;;;;;4967441;28;20130;-71
2022/04/07 11:49:45;;;;;;;10.93;1.95;;;11.30;99.90;;;;;;4967544;28;20047;-72
2022/04/07 11:52:12;;;;;;;14.48;1.92;;;11.30;99.90;;;;;;4965514;28;20050;-72
2022/04/07 11:54:38;;;;;;;12.50;1.92;;;11.20;99.90;;;;;;4982861;28;20393;-71
2022/04/07 11:57:05;;;;;;;10.85;1.65;;;11.00;99.90;;;;;;4968854;28;20046;-72
2022/04/07 11:59:37;;;;;;;12.77;1.52;;;10.90;99.90;;;;;;4971061;28;20081;-72
2022/04/07 12:02:03;;;;;;;13.90;1.88;;;10.80;99.90;;;;;;4971010;28;20046;-72
2022/04/07 12:04:32;;;;;;;9.60;2.17;;;10.90;99.90;;;;;;4968973;28;20108;-71
2022/04/07 12:07:01;;;;;;;13.75;2.03;;;11.00;99.90;;;;;;4970563;28;20046;-72
2022/04/07 12:09:27;;;;;;;11.45;2.28;;;11.20;99.90;;;;;;4970857;28;20061;-72
2022/04/07 12:11:53;;;;;;;8.07;2.03;;;11.40;99.90;;;;;;4982321;28;20046;-72
2022/04/07 12:14:24;;;;;;;12.85;2.45;;;11.60;99.90;;;;;;4971223;28;20069;-73
2022/04/07 12:16:51;;;;;;;7.82;1.95;;;11.60;99.90;;;;;;4969562;28;20042;-72
2022/04/07 12:19:18;;;;;;;9.48;2.03;;;11.50;99.90;;;;;;4969762;28;20062;-71
2022/04/07 12:21:58;;;;;;;11.55;2.63;;;11.50;99.90;;;;;;4968307;28;20121;-72
2022/04/07 12:24:28;;;;;;;7.22;1.98;;;11.40;99.90;;;;;;4969085;28;20749;-71
2022/04/07 12:26:58;;;;;;;14.50;2.05;;;11.30;99.90;;;;;;4964779;28;20114;-72
2022/04/07 12:29:31;;;;;;;13.02;1.88;;;11.10;99.90;;;;;;4969904;28;20042;-71
2022/04/07 12:32:09;;;;;;;13.05;2.55;;;11.20;99.90;;;;;;4967096;28;20166;-71
2022/04/07 12:34:51;;;;;;;10.68;2.15;;;11.40;99.90;;;;;;4971300;28;20556;-72
2022/04/07 12:37:30;;;;;;;11.18;1.88;;;11.30;99.90;;;;;;4970467;28;20477;-72
2022/04/07 12:39:57;;;;;;;11.93;1.17;;;11.40;99.90;;;;;;4964105;28;20556;-72
2022/04/07 12:42:23;;;;;;;11.45;2.08;;;11.40;99.90;;;;;;4967699;28;20077;-72
2022/04/07 12:44:49;;;;;;;13.10;2.35;;;11.60;99.90;;;;;;4970464;28;20089;-71
2022/04/07 12:47:17;;;;;;;8.73;1.10;;;11.60;99.90;;;;;;4969362;28;20077;-71
2022/04/07 12:49:57;;;;;;;11.60;2.10;;;11.30;99.90;;;;;;4968644;28;20446;-72
2022/04/07 12:52:41;;;;;;;8.75;1.80;;;11.00;99.90;;;;;;4966726;28;20039;-71
2022/04/07 12:55:15;;;;;;;10.73;1.42;;;10.50;99.90;;;;;;4967498;28;20772;-72
2022/04/07 12:57:42;;;;;;;7.13;1.55;;;10.10;99.90;;;;;;4968833;28;20661;-72